Station Historical Data
Daily Summary for May 28, 2017 Units:  Metric    English   Both
« Previous Day
Next Day »
Daily Weekly Monthly Yearly Custom
  High: Low: Average:
Temperature: 26.6 °C 10.2 °C 18.7 °C
Dew Point: 17.9 °C 9.2 °C 14 °C
Humidity: 94% 52% 76%
Wind Speed: 12.9km/h 0km/h 3.2km/h
Wind Gust: 20.9km/h - -
Wind- - ESE
Pressure: 1013.8 hPa 1005 hPa -
Precipitation: 0 mm    
Historical Graphs
 
 
Tabular Data for May 28, 2017
Time Temperature Dew Point Pressure Wind Wind Speed Wind Gust Humidity Rainfall Rate (Hourly)
00:04 12.5 °C 10.7 °C 1013.8 hPa Calm     89% 0 mm
00:09 12.6 °C 10.8 °C 1012.8 hPa Calm     89% 0 mm
00:14 12.7 °C 11.1 °C 1012.4 hPa Calm     90% 0 mm
00:19 12.7 °C 11.1 °C 1012.8 hPa Calm     90% 0 mm
00:24 12.6 °C 10.9 °C 1012.4 hPa Calm     90% 0 mm
00:29 12.4 °C 10.8 °C 1012.4 hPa Calm     90% 0 mm
00:34 12.3 °C 10.7 °C 1012.4 hPa Calm     90% 0 mm
00:39 12.1 °C 10.5 °C 1012.4 hPa Calm     90% 0 mm
00:44 11.9 °C 10.3 °C 1012.1 hPa Calm     90% 0 mm
00:49 11.9 °C 10.3 °C 1012.1 hPa Calm     90% 0 mm
00:54 11.8 °C 10.2 °C 1012.4 hPa Calm     90% 0 mm
00:59 11.8 °C 10.3 °C 1012.4 hPa Calm     91% 0 mm
01:04 11.7 °C 10.2 °C 1012.1 hPa Calm     91% 0 mm
01:09 11.7 °C 10.2 °C 1011.7 hPa Calm     91% 0 mm
01:14 11.9 °C 10.5 °C 1012.1 hPa Calm     91% 0 mm
01:19 11.9 °C 10.4 °C 1011.7 hPa Calm     91% 0 mm
01:24 11.9 °C 10.7 °C 1011.4 hPa Calm     92% 0 mm
01:29 12 °C 10.7 °C 1011.1 hPa Calm     92% 0 mm
01:34 11.9 °C 10.6 °C 1011.1 hPa Calm     92% 0 mm
01:39 11.8 °C 10.5 °C 1011.1 hPa Calm     92% 0 mm
01:44 11.7 °C 10.4 °C 1011.1 hPa Calm     92% 0 mm
01:49 11.4 °C 10.2 °C 1011.7 hPa Calm     92% 0 mm
01:54 11.4 °C 10.1 °C 1012.1 hPa Calm     92% 0 mm
01:59 11.4 °C 10.2 °C 1012.4 hPa Calm     92% 0 mm
02:04 11.3 °C 10.1 °C 1012.1 hPa Calm     92% 0 mm
02:09 11.2 °C 9.9 °C 1012.1 hPa Calm     92% 0 mm
02:14 11.3 °C 10.1 °C 1012.1 hPa Calm     92% 0 mm
02:19 11.2 °C 9.9 °C 1012.1 hPa Calm     92% 0 mm
02:24 11.3 °C 10.2 °C 1012.1 hPa Calm     93% 0 mm
02:29 11.3 °C 10.2 °C 1011.7 hPa Calm     93% 0 mm
02:34 11.2 °C 10.1 °C 1011.7 hPa Calm     93% 0 mm
02:39 11.1 °C 9.8 °C 1011.7 hPa Calm     92% 0 mm
02:44 11 °C 9.9 °C 1011.7 hPa Calm     93% 0 mm
02:49 10.9 °C 9.8 °C 1012.1 hPa Calm     93% 0 mm
02:54 11 °C 9.9 °C 1012.1 hPa Calm     93% 0 mm
02:59 10.8 °C 9.7 °C 1011.7 hPa Calm     93% 0 mm
03:04 10.8 °C 9.7 °C 1011.7 hPa Calm     93% 0 mm
03:09 10.9 °C 9.8 °C 1011.7 hPa Calm     93% 0 mm
03:14 10.9 °C 9.8 °C 1011.4 hPa Calm     93% 0 mm
03:19 10.9 °C 9.8 °C 1011.4 hPa Calm     93% 0 mm
03:24 11 °C 9.9 °C 1011.4 hPa Calm     93% 0 mm
03:29 10.8 °C 9.7 °C 1011.7 hPa Calm     93% 0 mm
03:34 10.7 °C 9.6 °C 1011.4 hPa Calm     93% 0 mm
03:39 10.8 °C 9.7 °C 1011.4 hPa Calm     93% 0 mm
03:44 10.8 °C 9.7 °C 1011.1 hPa Calm     93% 0 mm
03:49 10.9 °C 9.8 °C 1011.1 hPa Calm     93% 0 mm
03:54 11 °C 10.1 °C 1011.4 hPa Calm     94% 0 mm
03:59 10.9 °C 9.8 °C 1011.4 hPa Calm     93% 0 mm
04:04 10.9 °C 9.8 °C 1011.4 hPa Calm     93% 0 mm
04:09 10.9 °C 9.8 °C 1011.4 hPa Calm     93% 0 mm
04:14 10.9 °C 9.8 °C 1011.7 hPa Calm     93% 0 mm
04:19 10.8 °C 9.7 °C 1011.7 hPa Calm     93% 0 mm
04:24 10.7 °C 9.6 °C 1011.7 hPa Calm     93% 0 mm
04:29 10.7 °C 9.6 °C 1011.7 hPa Calm     93% 0 mm
04:34 10.6 °C 9.4 °C 1011.7 hPa Calm     93% 0 mm
04:39 10.5 °C 9.4 °C 1011.4 hPa Calm     93% 0 mm
04:44 10.4 °C 9.3 °C 1011.4 hPa Calm     93% 0 mm
04:49 10.4 °C 9.5 °C 1011.4 hPa Calm     94% 0 mm
04:54 10.3 °C 9.3 °C 1011.7 hPa Calm     93% 0 mm
04:59 10.3 °C 9.4 °C 1011.7 hPa Calm     94% 0 mm
05:04 10.4 °C 9.4 °C 1011.7 hPa Calm     94% 0 mm
05:09 10.3 °C 9.3 °C 1011.4 hPa Calm     93% 0 mm
05:14 10.3 °C 9.2 °C 1011.7 hPa Calm     93% 0 mm
05:19 10.3 °C 9.2 °C 1011.4 hPa Calm     93% 0 mm
05:24 10.2 °C 9.2 °C 1011.4 hPa Calm     93% 0 mm
05:29 10.3 °C 9.3 °C 1011.7 hPa Calm     94% 0 mm
05:34 10.3 °C 9.3 °C 1011.7 hPa Calm     94% 0 mm
05:39 10.3 °C 9.4 °C 1011.7 hPa Calm     94% 0 mm
05:44 10.4 °C 9.4 °C 1011.4 hPa Calm     94% 0 mm
05:49 10.4 °C 9.4 °C 1011.4 hPa Calm     94% 0 mm
05:54 10.4 °C 9.4 °C 1011.4 hPa Calm     94% 0 mm
05:59 10.5 °C 9.6 °C 1011.4 hPa Calm     94% 0 mm
06:04 10.6 °C 9.7 °C 1011.4 hPa Calm     94% 0 mm
06:09 10.7 °C 9.7 °C 1011.4 hPa Calm     94% 0 mm
06:14 10.7 °C 9.8 °C 1011.4 hPa Calm     94% 0 mm
06:19 10.8 °C 9.8 °C 1011.4 hPa Calm     94% 0 mm
06:24 10.9 °C 9.9 °C 1011.4 hPa Calm     94% 0 mm
06:29 11.1 °C 10.1 °C 1011.4 hPa Calm     94% 0 mm
06:34 11.2 °C 10.2 °C 1011.4 hPa Calm     94% 0 mm
06:39 11.2 °C 10.1 °C 1011.4 hPa Calm     93% 0 mm
06:44 11.3 °C 10.2 °C 1011.4 hPa Calm     93% 0 mm
06:49 11.5 °C 10.4 °C 1011.4 hPa Calm     93% 0 mm
06:54 11.7 °C 10.6 °C 1011.1 hPa Calm   4.8 km/h 93% 0 mm
06:59 11.8 °C 10.7 °C 1011.1 hPa East 1.6 km/h 4.8 km/h 93% 0 mm
07:04 11.9 °C 10.6 °C 1011.1 hPa ENE 1.6 km/h 4.8 km/h 92% 0 mm
07:09 12 °C 10.7 °C 1010.7 hPa ENE 1.6 km/h 6.4 km/h 92% 0 mm
07:14 12.1 °C 10.8 °C 1010.7 hPa ENE 1.6 km/h 6.4 km/h 92% 0 mm
07:19 12.2 °C 10.9 °C 1010.7 hPa ENE 3.2 km/h 8 km/h 92% 0 mm
07:24 12.4 °C 11 °C 1010.4 hPa NE 1.6 km/h 6.4 km/h 91% 0 mm
07:29 12.6 °C 11.2 °C 1010.4 hPa Calm   9.7 km/h 91% 0 mm
07:34 12.8 °C 11.2 °C 1010.4 hPa ENE 3.2 km/h 6.4 km/h 90% 0 mm
07:39 12.9 °C 11.3 °C 1010.4 hPa East 3.2 km/h 8 km/h 90% 0 mm
07:44 13.2 °C 11.4 °C 1010.4 hPa ENE 4.8 km/h 8 km/h 89% 0 mm
07:49 13.5 °C 11.6 °C 1010.4 hPa ENE 3.2 km/h 8 km/h 88% 0 mm
07:54 13.9 °C 11.7 °C 1010 hPa NE 4.8 km/h 9.7 km/h 86% 0 mm
07:59 14.2 °C 11.7 °C 1010 hPa NE 4.8 km/h 11.3 km/h 85% 0 mm
08:04 14.7 °C 12 °C 1010 hPa East 8 km/h 11.3 km/h 84% 0 mm
08:09 15.1 °C 12.2 °C 1010.4 hPa NE 3.2 km/h 8 km/h 83% 0 mm
08:19 15.7 °C 12.3 °C 1010.4 hPa East 3.2 km/h 8 km/h 80% 0 mm
08:24 16.1 °C 12.4 °C 1010 hPa East 3.2 km/h 9.7 km/h 79% 0 mm
08:29 16.3 °C 12.5 °C 1010 hPa ENE 4.8 km/h 9.7 km/h 78% 0 mm
08:34 16.5 °C 12.4 °C 1010 hPa NE 6.4 km/h 9.7 km/h 77% 0 mm
08:39 17 °C 13.1 °C 1010 hPa NE 6.4 km/h 9.7 km/h 78% 0 mm
08:44 17.1 °C 12.8 °C 1010 hPa NE 6.4 km/h 9.7 km/h 76% 0 mm
08:49 17.4 °C 13.2 °C 1010 hPa NE 4.8 km/h 9.7 km/h 76% 0 mm
08:54 17.7 °C 13.2 °C 1010 hPa ENE 3.2 km/h 11.3 km/h 75% 0 mm
08:59 17.9 °C 13.6 °C 1010 hPa ENE 8 km/h 11.3 km/h 76% 0 mm
09:04 18.6 °C 14.1 °C 1010 hPa ENE 1.6 km/h 8 km/h 75% 0 mm
09:09 18.7 °C 13.8 °C 1010 hPa ENE 4.8 km/h 8 km/h 73% 0 mm
09:14 19.1 °C 13.9 °C 1010 hPa East 8 km/h 11.3 km/h 72% 0 mm
09:19 19.2 °C 14.1 °C 1010 hPa ENE 4.8 km/h 11.3 km/h 72% 0 mm
09:24 19.3 °C 13.9 °C 1010 hPa East 4.8 km/h 11.3 km/h 71% 0 mm
09:29 19.8 °C 14.4 °C 1009.7 hPa ESE 3.2 km/h 9.7 km/h 71% 0 mm
09:34 19.6 °C 14.2 °C 1009.7 hPa East 4.8 km/h 11.3 km/h 71% 0 mm
09:39 19.8 °C 14.6 °C 1009.7 hPa ENE 4.8 km/h 11.3 km/h 72% 0 mm
09:44 19.7 °C 14.3 °C 1009.7 hPa ENE 4.8 km/h 12.9 km/h 71% 0 mm
09:49 19.7 °C 14.3 °C 1009.7 hPa ESE 4.8 km/h 12.9 km/h 71% 0 mm
09:54 20.1 °C 15.1 °C 1009.7 hPa ENE 6.4 km/h 6.4 km/h 73% 0 mm
09:59 20.2 °C 14.7 °C 1009.4 hPa NE 8 km/h 11.3 km/h 71% 0 mm
10:09 20.6 °C 15.6 °C 1009.4 hPa Calm   11.3 km/h 73% 0 mm
10:14 20.8 °C 15.2 °C 1009.4 hPa ESE 1.6 km/h 11.3 km/h 70% 0 mm
10:19 20.3 °C 14.7 °C 1009 hPa East 3.2 km/h 11.3 km/h 70% 0 mm
10:24 20.2 °C 14.6 °C 1009 hPa East 4.8 km/h 11.3 km/h 70% 0 mm
10:29 20.7 °C 14.8 °C 1009 hPa ESE 6.4 km/h 11.3 km/h 69% 0 mm
10:34 20.8 °C 14.9 °C 1009 hPa ENE 3.2 km/h 8 km/h 69% 0 mm
10:39 21.2 °C 15.1 °C 1009 hPa East 1.6 km/h 11.3 km/h 68% 0 mm
10:44 21.6 °C 15.4 °C 1009 hPa ENE 8 km/h 11.3 km/h 68% 0 mm
10:49 21.5 °C 15.1 °C 1009.4 hPa NE 1.6 km/h 11.3 km/h 67% 0 mm
10:54 21.7 °C 15.5 °C 1009.4 hPa ENE 3.2 km/h 11.3 km/h 68% 0 mm
10:59 21.4 °C 15.2 °C 1009.4 hPa ENE 3.2 km/h 9.7 km/h 68% 0 mm
11:04 21.3 °C 15.6 °C 1009.7 hPa SE 3.2 km/h 4.8 km/h 70% 0 mm
11:09 21.2 °C 15.1 °C 1009.4 hPa East 3.2 km/h 9.7 km/h 68% 0 mm
11:14 21.5 °C 15.6 °C 1009.4 hPa ENE 4.8 km/h 9.7 km/h 69% 0 mm
11:19 21.4 °C 15.1 °C 1009.7 hPa ENE 3.2 km/h 9.7 km/h 67% 0 mm
11:24 21.8 °C 15.4 °C 1009.7 hPa WSW 1.6 km/h 3.2 km/h 67% 0 mm
11:29 21.8 °C 15.7 °C 1009.4 hPa Calm   3.2 km/h 68% 0 mm
11:34 22.1 °C 15.4 °C 1009.4 hPa NNW 3.2 km/h 6.4 km/h 66% 0 mm
11:39 22.3 °C 15.9 °C 1009.7 hPa West 3.2 km/h 4.8 km/h 67% 0 mm
11:44 22.7 °C 15.5 °C 1009.7 hPa WSW 1.6 km/h 6.4 km/h 64% 0 mm
11:49 23.2 °C 15.2 °C 1009.7 hPa WSW 3.2 km/h 8 km/h 61% 0 mm
11:54 23.5 °C 15.6 °C 1009.4 hPa SSW 3.2 km/h 9.7 km/h 61% 0 mm
11:59 22.9 °C 15 °C 1009.4 hPa SSW 4.8 km/h 11.3 km/h 61% 0 mm
12:04 23.1 °C 16.1 °C 1009.4 hPa SSW 4.8 km/h 11.3 km/h 65% 0 mm
12:09 23.1 °C 15.9 °C 1009.4 hPa West 3.2 km/h 8 km/h 64% 0 mm
12:14 23.2 °C 15.2 °C 1009.4 hPa WNW 3.2 km/h 11.3 km/h 61% 0 mm
12:19 23.4 °C 16.2 °C 1009.4 hPa North 1.6 km/h 4.8 km/h 64% 0 mm
12:24 23.7 °C 16 °C 1009 hPa Calm   6.4 km/h 62% 0 mm
12:34 23.3 °C 15.9 °C 1009 hPa NE 4.8 km/h 11.3 km/h 63% 0 mm
12:39 23 °C 15.8 °C 1009 hPa North 1.6 km/h 8 km/h 64% 0 mm
12:44 23.3 °C 15.6 °C 1008.7 hPa NW 4.8 km/h 6.4 km/h 62% 0 mm
12:49 24 °C 15.8 °C 1008.7 hPa West 4.8 km/h 8 km/h 60% 0 mm
12:54 24.2 °C 16.7 °C 1008.7 hPa West 3.2 km/h 8 km/h 63% 0 mm
12:59 23.8 °C 16.8 °C 1008.7 hPa NNW 3.2 km/h 6.4 km/h 65% 0 mm
13:04 24.2 °C 16.2 °C 1008.7 hPa North 3.2 km/h 6.4 km/h 61% 0 mm
13:09 24.1 °C 16.6 °C 1008.7 hPa ENE 6.4 km/h 6.4 km/h 63% 0 mm
13:14 24.2 °C 15.9 °C 1008.7 hPa ENE 4.8 km/h 8 km/h 60% 0 mm
13:19 24.8 °C 16.7 °C 1008.4 hPa NE 3.2 km/h 8 km/h 61% 0 mm
13:24 24.6 °C 16.1 °C 1008.4 hPa NE 3.2 km/h 8 km/h 59% 0 mm
13:29 24.8 °C 16.3 °C 1008.4 hPa NNE 3.2 km/h 6.4 km/h 59% 0 mm
13:34 24.7 °C 16.2 °C 1008.4 hPa NE 4.8 km/h 6.4 km/h 59% 0 mm
13:39 24.6 °C 15.5 °C 1008.4 hPa NE 11.3 km/h 12.9 km/h 57% 0 mm
13:44 24.1 °C 16.9 °C 1008 hPa NE 4.8 km/h 11.3 km/h 64% 0 mm
13:49 23.9 °C 15.7 °C 1008 hPa NE 4.8 km/h 11.3 km/h 60% 0 mm
13:54 23.8 °C 15.8 °C 1008 hPa NNE 3.2 km/h 11.3 km/h 61% 0 mm
13:59 23.9 °C 15.7 °C 1008 hPa NE 8 km/h 8 km/h 60% 0 mm
14:04 24.6 °C 16 °C 1008 hPa NE 4.8 km/h 12.9 km/h 59% 0 mm
14:09 24.6 °C 15.5 °C 1007.7 hPa NNW 4.8 km/h 6.4 km/h 57% 0 mm
14:14 25.1 °C 15.7 °C 1007.7 hPa NE 3.2 km/h 8 km/h 56% 0 mm
14:19 24.9 °C 16.1 °C 1007.7 hPa ENE 3.2 km/h 8 km/h 58% 0 mm
14:24 24.3 °C 15.3 °C 1007.7 hPa East 3.2 km/h 8 km/h 57% 0 mm
14:29 24.6 °C 16.6 °C 1007.7 hPa ENE 3.2 km/h 8 km/h 61% 0 mm
14:34 24.9 °C 15.8 °C 1007.7 hPa East 3.2 km/h 12.9 km/h 57% 0 mm
14:39 25.2 °C 16.4 °C 1007.3 hPa East 3.2 km/h 8 km/h 58% 0 mm
14:44 25.2 °C 16.4 °C 1007.3 hPa NNE 6.4 km/h 9.7 km/h 58% 0 mm
14:49 25.2 °C 15.6 °C 1007.3 hPa NNE 4.8 km/h 9.7 km/h 55% 0 mm
14:54 25.6 °C 16.4 °C 1007.3 hPa NNE 4.8 km/h 9.7 km/h 57% 0 mm
14:59 25.6 °C 17.2 °C 1007.3 hPa NE 4.8 km/h 9.7 km/h 60% 0 mm
15:04 25.7 °C 16.3 °C 1007.3 hPa North 4.8 km/h 9.7 km/h 56% 0 mm
15:09 25.4 °C 15.7 °C 1007 hPa Calm   8 km/h 55% 0 mm
15:14 25.8 °C 16.1 °C 1007 hPa NNE 3.2 km/h 9.7 km/h 55% 0 mm
15:19 26 °C 17.4 °C 1007 hPa NE 1.6 km/h 6.4 km/h 59% 0 mm
15:24 26.1 °C 16.4 °C 1007 hPa NE 3.2 km/h 14.5 km/h 55% 0 mm
15:29 26.1 °C 17.2 °C 1006.7 hPa ENE 4.8 km/h 14.5 km/h 58% 0 mm
15:34 26 °C 16.3 °C 1006.7 hPa ENE 4.8 km/h 9.7 km/h 55% 0 mm
15:39 26.2 °C 16.1 °C 1006.7 hPa ENE 4.8 km/h 11.3 km/h 54% 0 mm
15:44 26.2 °C 15.8 °C 1006.7 hPa ENE 1.6 km/h 9.7 km/h 53% 0 mm
15:49 25.8 °C 16.7 °C 1006.7 hPa ENE 1.6 km/h 3.2 km/h 57% 0 mm
15:54 25.3 °C 15.7 °C 1006.3 hPa ENE 4.8 km/h 4.8 km/h 55% 0 mm
15:59 25.8 °C 16.9 °C 1006.3 hPa ENE 4.8 km/h 8 km/h 58% 0 mm
16:04 25.6 °C 16.4 °C 1006.3 hPa NNW 8 km/h 8 km/h 57% 0 mm
16:09 25.6 °C 16.4 °C 1006.3 hPa SE 6.4 km/h 12.9 km/h 57% 0 mm
16:14 26.2 °C 16.7 °C 1006.3 hPa ESE 6.4 km/h 8 km/h 56% 0 mm
16:19 26.6 °C 17.3 °C 1006.3 hPa ESE 3.2 km/h 8 km/h 57% 0 mm
16:24 26.6 °C 15.9 °C 1006 hPa South 1.6 km/h 8 km/h 52% 0 mm
16:29 26.3 °C 16.3 °C 1006 hPa South 1.6 km/h 8 km/h 54% 0 mm
16:34 26.4 °C 17.2 °C 1006 hPa NE 3.2 km/h 11.3 km/h 57% 0 mm
16:39 26.3 °C 16.8 °C 1006 hPa NNE 4.8 km/h 11.3 km/h 56% 0 mm
16:44 25.7 °C 16.8 °C 1006 hPa NNE 3.2 km/h 9.7 km/h 58% 0 mm
16:49 25.8 °C 16.4 °C 1006 hPa NE 3.2 km/h 14.5 km/h 56% 0 mm
16:54 25.8 °C 16.9 °C 1006 hPa NE 4.8 km/h 14.5 km/h 58% 0 mm
16:59 25.6 °C 16.7 °C 1005.6 hPa NE 3.2 km/h 8 km/h 58% 0 mm
17:04 25.4 °C 16.3 °C 1005.6 hPa ENE 4.8 km/h 12.9 km/h 57% 0 mm
17:09 25.4 °C 17.1 °C 1005.6 hPa NE 3.2 km/h 14.5 km/h 60% 0 mm
17:14 25.7 °C 17.3 °C 1005.6 hPa NE 3.2 km/h 12.9 km/h 60% 0 mm
17:19 25.3 °C 17.3 °C 1005.6 hPa NE 4.8 km/h 8 km/h 61% 0 mm
17:24 25.1 °C 16.8 °C 1005.6 hPa NE 4.8 km/h 16.1 km/h 60% 0 mm
17:29 25.1 °C 16.7 °C 1005.6 hPa NE 6.4 km/h 16.1 km/h 60% 0 mm
17:34 25 °C 16.9 °C 1005.3 hPa NE 6.4 km/h 16.1 km/h 61% 0 mm
17:39 24.9 °C 16.9 °C 1005.6 hPa NE 6.4 km/h 12.9 km/h 61% 0 mm
17:44 24.9 °C 16.9 °C 1005.3 hPa ENE 11.3 km/h 14.5 km/h 61% 0 mm
17:49 25 °C 16.7 °C 1005.3 hPa NE 12.9 km/h 14.5 km/h 60% 0 mm
17:54 25.1 °C 16.7 °C 1005.3 hPa NE 8 km/h 16.1 km/h 60% 0 mm
17:59 24.9 °C 17.2 °C 1005.3 hPa NE 8 km/h 16.1 km/h 62% 0 mm
18:04 24.8 °C 17.1 °C 1005.3 hPa NE 6.4 km/h 16.1 km/h 62% 0 mm
18:09 24.9 °C 16.8 °C 1005.3 hPa NE 6.4 km/h 12.9 km/h 61% 0 mm
18:14 24.8 °C 17.3 °C 1005.6 hPa North 3.2 km/h 14.5 km/h 63% 0 mm
18:19 24.5 °C 17.9 °C 1005.3 hPa NE 3.2 km/h 14.5 km/h 67% 0 mm
18:24 24.3 °C 17.6 °C 1005.6 hPa NE 6.4 km/h 17.7 km/h 66% 0 mm
18:29 24.3 °C 17.8 °C 1005.6 hPa NE 8 km/h 17.7 km/h 67% 0 mm
18:34 24.4 °C 17.9 °C 1005.3 hPa NE 8 km/h 19.3 km/h 67% 0 mm
18:39 24.3 °C 17.5 °C 1005.6 hPa NE 9.7 km/h 20.9 km/h 66% 0 mm
18:44 24.2 °C 17.7 °C 1005.6 hPa NE 9.7 km/h 20.9 km/h 67% 0 mm
18:49 24.1 °C 17.6 °C 1005.3 hPa ENE 9.7 km/h 16.1 km/h 67% 0 mm
18:54 24.1 °C 17.8 °C 1005.3 hPa East 3.2 km/h 12.9 km/h 68% 0 mm
18:59 24.1 °C 17.6 °C 1005.3 hPa ENE 6.4 km/h 16.1 km/h 67% 0 mm
19:04 23.9 °C 17.4 °C 1005.3 hPa ENE 8 km/h 16.1 km/h 67% 0 mm
19:09 23.9 °C 17.4 °C 1005.3 hPa ENE 6.4 km/h 12.9 km/h 67% 0 mm
19:14 23.9 °C 17.4 °C 1005.3 hPa ENE 3.2 km/h 11.3 km/h 67% 0 mm
19:19 23.9 °C 17.6 °C 1005.6 hPa NE 4.8 km/h 11.3 km/h 68% 0 mm
19:24 23.8 °C 17.6 °C 1005.3 hPa ENE 1.6 km/h 12.9 km/h 68% 0 mm
19:29 23.8 °C 17.5 °C 1005.3 hPa ENE 6.4 km/h 12.9 km/h 68% 0 mm
19:34 23.7 °C 17.4 °C 1005 hPa NE 6.4 km/h 12.9 km/h 68% 0 mm
19:39 23.5 °C 17.7 °C 1005.3 hPa NE 6.4 km/h 12.9 km/h 70% 0 mm
19:44 23.4 °C 17.6 °C 1005.3 hPa ENE 6.4 km/h 9.7 km/h 70% 0 mm
19:49 23.3 °C 17.6 °C 1005.3 hPa ENE 4.8 km/h 8 km/h 70% 0 mm
19:54 23.3 °C 17.6 °C 1005.3 hPa East 8 km/h 9.7 km/h 70% 0 mm
19:59 23.2 °C 17.4 °C 1005.6 hPa East 4.8 km/h 14.5 km/h 70% 0 mm
20:04 23.2 °C 17.6 °C 1005.6 hPa ESE 4.8 km/h 14.5 km/h 71% 0 mm
20:09 23.1 °C 17.3 °C 1005.6 hPa South 4.8 km/h 14.5 km/h 70% 0 mm
20:14 22.8 °C 16.8 °C 1005.6 hPa SW 8 km/h 16.1 km/h 69% 0 mm
20:19 22.4 °C 16.5 °C 1005.6 hPa SW 8 km/h 17.7 km/h 69% 0 mm
20:24 22.3 °C 16.3 °C 1005.6 hPa SSW 8 km/h 16.1 km/h 69% 0 mm
20:29 21.9 °C 16.4 °C 1005.6 hPa SSW 8 km/h 16.1 km/h 71% 0 mm
20:34 21.6 °C 16.3 °C 1005.6 hPa SSW 6.4 km/h 12.9 km/h 72% 0 mm
20:39 21.4 °C 16.3 °C 1005.3 hPa SSW 4.8 km/h 11.3 km/h 73% 0 mm
20:44 21.3 °C 16.2 °C 1005.6 hPa South 6.4 km/h 12.9 km/h 73% 0 mm
20:49 21.2 °C 16.3 °C 1005.6 hPa South 3.2 km/h 11.3 km/h 74% 0 mm
20:54 21.1 °C 16.5 °C 1005.3 hPa South 4.8 km/h 8 km/h 75% 0 mm
20:59 21 °C 16.4 °C 1005.3 hPa South 3.2 km/h 9.7 km/h 75% 0 mm
21:04 21 °C 16.4 °C 1005.6 hPa SSE 3.2 km/h 9.7 km/h 75% 0 mm
21:09 21 °C 16.6 °C 1005.6 hPa SSE 3.2 km/h 12.9 km/h 76% 0 mm
21:14 20.9 °C 16.3 °C 1005.6 hPa SSW 4.8 km/h 11.3 km/h 75% 0 mm
21:19 20.8 °C 16.4 °C 1005.6 hPa South 3.2 km/h 8 km/h 76% 0 mm
21:24 20.7 °C 16.6 °C 1005.6 hPa South 1.6 km/h 8 km/h 77% 0 mm
21:29 20.7 °C 16.5 °C 1005.6 hPa South 3.2 km/h 9.7 km/h 77% 0 mm
21:34 20.6 °C 16.4 °C 1005.6 hPa South 3.2 km/h 9.7 km/h 77% 0 mm
21:39 20.5 °C 16.3 °C 1005.6 hPa SSE 1.6 km/h 8 km/h 77% 0 mm
21:44 20.4 °C 16.2 °C 1005.6 hPa SSE 1.6 km/h 6.4 km/h 77% 0 mm
21:49 20.3 °C 16.4 °C 1005.6 hPa SSE 4.8 km/h 6.4 km/h 78% 0 mm
21:54 20.3 °C 16.4 °C 1005.6 hPa SSE 3.2 km/h 8 km/h 78% 0 mm
21:59 20.2 °C 16.3 °C 1005.6 hPa South 3.2 km/h 12.9 km/h 78% 0 mm
22:04 20.2 °C 16 °C 1006 hPa South 4.8 km/h 12.9 km/h 77% 0 mm
22:09 20.1 °C 15.9 °C 1006 hPa South 4.8 km/h 11.3 km/h 77% 0 mm
22:14 20.1 °C 15.7 °C 1006 hPa South 6.4 km/h 19.3 km/h 76% 0 mm
22:19 19.9 °C 15.6 °C 1006.3 hPa South 4.8 km/h 19.3 km/h 76% 0 mm
22:24 19.9 °C 15.7 °C 1006.3 hPa South 4.8 km/h 12.9 km/h 77% 0 mm
22:29 19.8 °C 15.7 °C 1006.3 hPa South 4.8 km/h 12.9 km/h 77% 0 mm
22:34 19.8 °C 15.6 °C 1006.3 hPa SSW 6.4 km/h 11.3 km/h 77% 0 mm
22:44 19.7 °C 15.7 °C 1006.3 hPa SE 4.8 km/h 11.3 km/h 78% 0 mm
22:49 19.7 °C 15.7 °C 1006.3 hPa SSW 3.2 km/h 12.9 km/h 78% 0 mm
22:54 19.6 °C 15.7 °C 1006.3 hPa SSE 4.8 km/h 9.7 km/h 78% 0 mm
22:59 19.7 °C 15.5 °C 1006.3 hPa SSW 4.8 km/h 9.7 km/h 77% 0 mm
23:04 19.8 °C 15.6 °C 1006 hPa SSW 4.8 km/h 9.7 km/h 77% 0 mm
23:09 19.7 °C 15.6 °C 1006 hPa South 3.2 km/h 9.7 km/h 77% 0 mm
23:14 19.7 °C 15.5 °C 1006 hPa SSW 4.8 km/h 12.9 km/h 77% 0 mm
23:19 19.7 °C 15.3 °C 1006 hPa SSW 6.4 km/h 12.9 km/h 76% 0 mm
23:24 19.6 °C 15.4 °C 1005.6 hPa SSW 6.4 km/h 14.5 km/h 77% 0 mm
23:29 19.6 °C 15.2 °C 1005.6 hPa SSE 8 km/h 12.9 km/h 76% 0 mm
23:34 19.5 °C 15.3 °C 1005.6 hPa South 4.8 km/h 12.9 km/h 77% 0 mm
23:39 19.3 °C 15.4 °C 1005.3 hPa Calm   12.9 km/h 78% 0 mm
23:44 19.3 °C 15.4 °C 1005 hPa SW 3.2 km/h 9.7 km/h 78% 0 mm
23:49 19.3 °C 15.3 °C 1005.3 hPa SSW 1.6 km/h 11.3 km/h 78% 0 mm
23:54 19.2 °C 15.3 °C 1005.3 hPa Calm   9.7 km/h 78% 0 mm
23:59 19.1 °C 15.2 °C 1005.3 hPa SSW 1.6 km/h 6.4 km/h 78% 0 mm
Buffalo, New York, USA
Compliments of Weather Underground - 2.5 mb